createdAt,value
2018-05-06T00:01:13.741Z,57.08
2018-05-06T00:03:41.852Z,60.49
2018-05-06T00:06:09.899Z,59.05
2018-05-06T00:08:37.881Z,60.54
2018-05-06T00:11:05.897Z,62.04
2018-05-06T00:13:33.916Z,60.79
2018-05-06T00:16:02.031Z,58.19
2018-05-06T00:18:30.119Z,58.76
2018-05-06T00:20:58.219Z,64.64
2018-05-06T00:23:26.316Z,64.21
2018-05-06T00:25:54.287Z,63.46
2018-05-06T00:28:22.255Z,65.11
2018-05-06T00:30:50.223Z,62.52
2018-05-06T00:33:18.736Z,60.95
2018-05-06T00:35:47.318Z,62.54
2018-05-06T00:38:15.474Z,60.83
2018-05-06T00:40:43.499Z,60.09
2018-05-06T00:43:11.501Z,60.09
2018-05-06T00:45:39.452Z,62.81
2018-05-06T00:48:07.495Z,65.48
2018-05-06T00:50:36.150Z,64.32
2018-05-06T00:53:04.941Z,63.47
2018-05-06T00:55:33.444Z,61.47
2018-05-06T00:58:02.149Z,61.63
2018-05-06T01:00:30.895Z,60.75
2018-05-06T01:02:59.373Z,60.28
2018-05-06T01:05:27.898Z,62.17
2018-05-06T01:07:56.240Z,62.37
2018-05-06T01:10:24.473Z,63.46
2018-05-06T01:12:52.887Z,62.28
2018-05-06T01:15:21.568Z,61.91
2018-05-06T01:17:49.966Z,64.21
2018-05-06T01:20:18.438Z,61.85
2018-05-06T01:22:47.209Z,61.36
2018-05-06T01:25:15.991Z,63.83
2018-05-06T01:27:44.795Z,63.58
2018-05-06T01:30:13.220Z,61.86
2018-05-06T01:32:41.642Z,64.63
2018-05-06T01:35:10.298Z,62.25
2018-05-06T01:37:38.730Z,60.63
2018-05-06T01:40:07.519Z,60.70
2018-05-06T01:42:36.280Z,59.75
2018-05-06T01:45:04.282Z,58.80
2018-05-06T01:47:32.334Z,59.36
2018-05-06T01:50:00.299Z,62.06
2018-05-06T01:52:28.284Z,63.15
2018-05-06T01:54:56.437Z,60.39
2018-05-06T01:57:25.157Z,59.65
2018-05-06T01:59:53.601Z,60.22
2018-05-06T02:02:21.618Z,60.71
2018-05-06T02:04:49.650Z,59.71
2018-05-06T02:07:17.698Z,58.89
2018-05-06T02:09:45.755Z,58.61
2018-05-06T02:12:13.750Z,57.60
2018-05-06T02:14:41.812Z,57.32
2018-05-06T02:17:09.762Z,56.84
2018-05-06T02:19:37.719Z,58.06
2018-05-06T02:22:05.773Z,56.82
2018-05-06T02:24:33.743Z,58.19
2018-05-06T02:27:02.194Z,58.21
2018-05-06T02:29:30.141Z,58.70
2018-05-06T02:31:58.199Z,57.56
2018-05-06T02:34:26.274Z,57.66
2018-05-06T02:36:54.242Z,58.24
2018-05-06T02:39:22.208Z,58.13
2018-05-06T02:41:50.218Z,58.81
2018-05-06T02:44:18.259Z,58.41
2018-05-06T02:46:46.259Z,59.44
2018-05-06T02:49:14.286Z,62.22
2018-05-06T02:51:42.299Z,62.23
2018-05-06T02:54:10.338Z,64.54
2018-05-06T02:56:38.351Z,66.39
2018-05-06T02:59:06.358Z,67.13
2018-05-06T03:01:34.381Z,66.95
2018-05-06T03:04:02.373Z,66.09
2018-05-06T03:06:30.315Z,64.23
2018-05-06T03:08:58.268Z,64.06
2018-05-06T03:11:26.237Z,65.43
2018-05-06T03:13:54.190Z,62.53
2018-05-06T03:16:22.228Z,61.46
2018-05-06T03:18:50.159Z,60.81
2018-05-06T03:21:18.166Z,63.82
2018-05-06T03:23:46.199Z,62.64
2018-05-06T03:26:14.165Z,64.62
2018-05-06T03:28:42.430Z,63.40
2018-05-06T03:31:10.452Z,62.17
2018-05-06T03:33:38.470Z,64.39
2018-05-06T03:36:06.516Z,63.80
2018-05-06T03:38:35.115Z,64.56
2018-05-06T03:41:03.587Z,62.53
2018-05-06T03:43:32.385Z,61.60
2018-05-06T03:46:00.840Z,60.57
2018-05-06T03:48:29.280Z,59.95
2018-05-06T03:50:57.925Z,59.00
2018-05-06T03:53:26.493Z,58.88
2018-05-06T03:59:16.054Z,57.99
2018-05-06T04:01:44.225Z,57.56
2018-05-06T04:04:12.654Z,57.67
2018-05-06T04:06:41.911Z,57.98
2018-05-06T04:09:10.519Z,58.75
2018-05-06T04:11:38.544Z,58.29
2018-05-06T04:14:06.496Z,56.94
2018-05-06T04:16:34.487Z,57.17
2018-05-06T04:19:02.474Z,56.14
2018-05-06T04:21:30.547Z,57.29
2018-05-06T04:23:58.540Z,56.02
2018-05-06T04:26:26.531Z,57.06
2018-05-06T04:28:54.910Z,55.07
2018-05-06T04:31:22.929Z,54.97
2018-05-06T04:33:50.895Z,54.67
2018-05-06T04:36:18.921Z,55.28
2018-05-06T04:38:47.153Z,55.16
2018-05-06T04:41:15.131Z,54.09
2018-05-06T04:43:43.190Z,55.92
2018-05-06T04:46:11.252Z,57.75
2018-05-06T04:48:39.271Z,58.85
2018-05-06T04:51:07.535Z,57.38
2018-05-06T04:53:35.549Z,59.10
2018-05-06T04:56:03.491Z,56.71
2018-05-06T04:58:31.553Z,55.37
2018-05-06T05:00:59.568Z,54.79
2018-05-06T05:03:27.621Z,55.17
2018-05-06T05:05:55.607Z,55.65
2018-05-06T05:08:23.623Z,55.99
2018-05-06T05:10:51.543Z,57.42
2018-05-06T05:13:19.525Z,56.42
2018-05-06T05:15:47.582Z,54.90
2018-05-06T05:18:16.240Z,55.41
2018-05-06T05:20:44.415Z,56.65
2018-05-06T05:23:12.363Z,58.34
2018-05-06T05:25:40.396Z,59.85
2018-05-06T05:28:08.415Z,60.94
2018-05-06T05:30:37.080Z,59.73
2018-05-06T05:33:05.051Z,61.20
2018-05-06T05:35:33.108Z,60.63
2018-05-06T05:38:01.075Z,60.69
2018-05-06T05:40:29.098Z,60.44
2018-05-06T05:42:57.041Z,57.42
2018-05-06T05:45:25.183Z,55.02
2018-05-06T05:47:53.216Z,55.92
2018-05-06T05:50:21.246Z,57.94
2018-05-06T05:52:49.272Z,55.41
2018-05-06T05:55:17.334Z,54.38
2018-05-06T05:57:45.321Z,53.49
2018-05-06T06:00:13.257Z,52.56
2018-05-06T06:02:41.337Z,52.40
2018-05-06T06:05:09.309Z,51.55
2018-05-06T06:07:37.389Z,51.22
2018-05-06T06:10:05.370Z,51.55
2018-05-06T06:12:33.457Z,50.25
2018-05-06T06:15:01.686Z,51.43
2018-05-06T06:17:29.602Z,50.71
2018-05-06T06:19:57.618Z,50.65
2018-05-06T06:22:25.638Z,49.06
2018-05-06T06:24:53.619Z,49.06
2018-05-06T06:27:21.620Z,49.31
2018-05-06T06:29:49.622Z,48.87
2018-05-06T06:32:17.944Z,48.80
2018-05-06T06:34:46.012Z,47.21
2018-05-06T06:37:14.045Z,48.12
2018-05-06T06:39:42.084Z,45.67
2018-05-06T06:42:10.132Z,47.12
2018-05-06T06:44:38.162Z,45.14
2018-05-06T06:47:06.191Z,44.67
2018-05-06T06:49:34.195Z,42.39
2018-05-06T06:52:02.236Z,43.39
2018-05-06T06:54:30.315Z,45.35
2018-05-06T06:56:58.451Z,45.85
2018-05-06T06:59:26.743Z,44.55
2018-05-06T07:01:55.743Z,43.65
2018-05-06T07:04:23.935Z,44.56
2018-05-06T07:06:51.955Z,45.01
2018-05-06T07:09:20.044Z,45.18
2018-05-06T07:11:48.215Z,44.20
2018-05-06T07:14:16.252Z,43.96
2018-05-06T07:16:44.319Z,43.43
2018-05-06T07:19:12.336Z,43.17
2018-05-06T07:21:40.345Z,46.18
2018-05-06T07:24:08.364Z,46.86
2018-05-06T07:26:36.428Z,46.45
2018-05-06T07:29:04.448Z,44.56
2018-05-06T07:31:32.450Z,45.32
2018-05-06T07:34:00.737Z,45.53
2018-05-06T07:36:28.831Z,47.21
2018-05-06T07:38:56.804Z,46.54
2018-05-06T07:41:24.852Z,45.03
2018-05-06T07:43:52.910Z,43.89
2018-05-06T07:46:20.874Z,41.81
2018-05-06T07:48:48.875Z,43.23
2018-05-06T07:51:16.917Z,44.00
2018-05-06T07:53:44.967Z,41.71
2018-05-06T07:56:12.934Z,41.38
2018-05-06T07:58:41.085Z,41.47
2018-05-06T08:01:09.237Z,38.81
2018-05-06T08:03:37.247Z,37.19
2018-05-06T08:06:05.354Z,37.79
2018-05-06T08:08:33.368Z,38.28
2018-05-06T08:11:01.370Z,36.96
2018-05-06T08:13:29.396Z,35.63
2018-05-06T08:15:57.365Z,36.01
2018-05-06T08:18:25.388Z,37.36
2018-05-06T08:20:53.383Z,38.28
2018-05-06T08:23:21.403Z,38.71
2018-05-06T08:25:49.420Z,37.94
2018-05-06T08:28:17.389Z,37.38
2018-05-06T08:30:45.542Z,36.80
2018-05-06T08:33:13.675Z,37.42
2018-05-06T08:35:42.115Z,38.56
2018-05-06T08:38:10.139Z,39.13
2018-05-06T08:40:38.226Z,39.11
2018-05-06T08:43:06.349Z,38.63
2018-05-06T08:45:34.392Z,38.13
2018-05-06T08:48:02.532Z,38.55
2018-05-06T08:50:30.518Z,39.04
2018-05-06T08:52:58.583Z,38.30
2018-05-06T08:55:26.643Z,38.39
2018-05-06T08:57:54.704Z,38.46
2018-05-06T09:00:22.810Z,39.21
2018-05-06T09:02:50.890Z,39.78
2018-05-06T09:05:18.951Z,40.76
2018-05-06T09:07:47.046Z,40.32
2018-05-06T09:10:15.120Z,37.73
2018-05-06T09:12:43.212Z,39.67
2018-05-06T09:15:11.259Z,37.47
2018-05-06T09:17:39.251Z,33.96
2018-05-06T09:20:07.270Z,36.38
2018-05-06T09:22:35.366Z,36.13
2018-05-06T09:25:03.578Z,32.59
2018-05-06T09:27:31.708Z,31.95
2018-05-06T09:29:59.870Z,32.23
2018-05-06T09:32:27.882Z,31.05
2018-05-06T09:34:56.007Z,29.42
2018-05-06T09:37:24.549Z,27.08
2018-05-06T09:39:52.651Z,26.93
2018-05-06T09:42:20.761Z,24.81
2018-05-06T09:44:48.965Z,24.31
2018-05-06T09:47:17.001Z,26.05
2018-05-06T09:49:45.085Z,25.43
2018-05-06T09:52:13.174Z,27.65
2018-05-06T09:54:41.403Z,27.61
2018-05-06T09:57:10.228Z,28.04
2018-05-06T09:59:38.332Z,28.12
2018-05-06T10:02:06.476Z,28.97
2018-05-06T10:04:34.593Z,28.81
2018-05-06T10:07:02.717Z,29.69
2018-05-06T10:09:30.884Z,30.42
2018-05-06T10:11:59.144Z,30.18
2018-05-06T10:14:27.248Z,29.96
2018-05-06T10:16:55.326Z,30.13
2018-05-06T10:19:23.445Z,30.77
2018-05-06T10:21:51.582Z,34.79
2018-05-06T10:24:19.684Z,37.65
2018-05-06T10:26:47.774Z,41.02
2018-05-06T10:29:15.847Z,42.21
2018-05-06T10:31:43.991Z,42.23
2018-05-06T10:34:12.069Z,43.07
2018-05-06T10:36:40.145Z,41.81
2018-05-06T10:39:08.467Z,41.20
2018-05-06T10:41:36.522Z,42.53
2018-05-06T10:44:04.684Z,41.91
2018-05-06T10:46:32.715Z,43.44
2018-05-06T10:49:00.878Z,43.22
2018-05-06T10:51:28.894Z,46.49
2018-05-06T10:53:56.995Z,46.23
2018-05-06T10:56:25.017Z,46.76
2018-05-06T10:58:53.074Z,48.11
2018-05-06T11:01:21.147Z,47.28
2018-05-06T11:03:49.201Z,48.45
2018-05-06T11:06:17.240Z,50.16
2018-05-06T11:08:45.388Z,52.14
2018-05-06T11:11:13.448Z,52.87
2018-05-06T11:13:41.459Z,47.79
2018-05-06T11:16:10.397Z,49.17
2018-05-06T11:18:38.528Z,52.61
2018-05-06T11:21:06.535Z,55.05
2018-05-06T11:23:34.639Z,53.43
2018-05-06T11:26:02.707Z,54.13
2018-05-06T11:28:30.718Z,51.59
2018-05-06T11:30:58.805Z,53.04
2018-05-06T11:33:26.933Z,55.93
2018-05-06T11:35:54.972Z,56.99
2018-05-06T11:38:22.951Z,57.55
2018-05-06T11:40:51.287Z,56.05
2018-05-06T11:43:19.353Z,56.29
2018-05-06T11:45:47.441Z,53.95
2018-05-06T11:48:15.457Z,51.72
2018-05-06T11:50:43.517Z,50.46
2018-05-06T11:53:11.554Z,49.21
2018-05-06T11:55:39.619Z,49.13
2018-05-06T11:58:07.696Z,49.37
2018-05-06T12:00:35.770Z,46.64
2018-05-06T12:03:03.873Z,44.02
2018-05-06T12:05:31.953Z,42.34
2018-05-06T12:08:00.145Z,45.14
2018-05-06T12:10:28.233Z,44.76
2018-05-06T12:12:56.389Z,42.86
2018-05-06T12:15:24.617Z,42.98
2018-05-06T12:17:52.710Z,41.75
2018-05-06T12:20:20.841Z,40.75
2018-05-06T12:22:49.081Z,41.06
2018-05-06T12:25:17.163Z,40.72
2018-05-06T12:27:45.259Z,38.97
2018-05-06T12:30:13.273Z,35.28
2018-05-06T12:32:41.346Z,32.58
2018-05-06T12:35:12.005Z,31.74
2018-05-06T12:37:40.018Z,30.99
2018-05-06T12:40:08.047Z,26.35
2018-05-06T12:42:36.334Z,23.28
2018-05-06T12:45:04.405Z,25.91
2018-05-06T12:47:32.559Z,22.24
2018-05-06T12:50:00.680Z,21.74
2018-05-06T12:52:28.621Z,24.68
2018-05-06T12:54:56.630Z,24.61
2018-05-06T12:57:24.670Z,27.08
2018-05-06T12:59:52.723Z,27.71
2018-05-06T13:02:20.837Z,29.22
2018-05-06T13:04:48.916Z,31.29
2018-05-06T13:07:17.063Z,31.81
2018-05-06T13:09:45.158Z,29.84
2018-05-06T13:12:13.333Z,30.67
2018-05-06T13:14:41.453Z,31.51
2018-05-06T13:17:09.438Z,30.58
2018-05-06T13:19:38.505Z,28.93
2018-05-06T13:22:06.641Z,28.76
2018-05-06T13:24:34.708Z,27.78
2018-05-06T13:27:02.779Z,26.03
2018-05-06T13:29:30.865Z,24.61
2018-05-06T13:31:58.989Z,26.77
2018-05-06T13:34:27.203Z,30.11
2018-05-06T13:36:55.228Z,27.96
2018-05-06T13:39:23.282Z,30.65
2018-05-06T13:41:51.386Z,33.21
2018-05-06T13:44:19.707Z,33.18
2018-05-06T13:46:47.759Z,33.00
2018-05-06T13:49:15.765Z,33.37
2018-05-06T13:51:43.763Z,34.92
2018-05-06T13:54:11.835Z,34.02
2018-05-06T13:56:39.933Z,35.48
2018-05-06T13:59:08.130Z,37.94
2018-05-06T14:01:36.193Z,38.26
2018-05-06T14:04:04.309Z,36.17
2018-05-06T14:06:32.385Z,36.42
2018-05-06T14:09:00.396Z,33.35
2018-05-06T14:11:28.467Z,32.77
2018-05-06T14:13:56.598Z,32.76
2018-05-06T14:16:24.711Z,31.46
2018-05-06T14:18:52.930Z,33.21
2018-05-06T14:21:20.933Z,33.05
2018-05-06T14:23:48.967Z,36.34
2018-05-06T14:26:16.950Z,33.38
2018-05-06T14:28:44.988Z,31.97
2018-05-06T14:31:12.974Z,30.47
2018-05-06T14:33:41.167Z,31.29
2018-05-06T14:36:09.240Z,30.49
2018-05-06T14:38:37.366Z,31.27
2018-05-06T14:41:05.429Z,32.02
2018-05-06T14:43:33.534Z,31.85
2018-05-06T14:46:01.898Z,33.53
2018-05-06T14:48:29.973Z,35.37
2018-05-06T14:50:58.024Z,34.36
2018-05-06T14:53:26.203Z,36.45
2018-05-06T14:55:54.398Z,34.66
2018-05-06T14:58:22.416Z,34.37
2018-05-06T15:00:50.435Z,34.07
2018-05-06T15:03:18.522Z,33.69
2018-05-06T15:05:46.683Z,33.99
2018-05-06T15:08:14.725Z,33.43
2018-05-06T15:10:42.811Z,34.00
2018-05-06T15:13:10.742Z,36.22
2018-05-06T15:15:39.074Z,35.75
2018-05-06T15:18:07.110Z,34.95
2018-05-06T15:20:35.120Z,34.46
2018-05-06T15:23:03.167Z,32.88
2018-05-06T15:25:31.154Z,33.06
2018-05-06T15:27:59.218Z,32.34
2018-05-06T15:30:27.210Z,34.06
2018-05-06T15:32:55.230Z,36.58
2018-05-06T15:35:23.262Z,34.26
2018-05-06T15:37:51.316Z,35.85
2018-05-06T15:40:19.383Z,36.37
2018-05-06T15:42:47.372Z,37.13
2018-05-06T15:45:15.389Z,35.21
2018-05-06T15:47:43.640Z,34.98
2018-05-06T15:50:11.757Z,35.86
2018-05-06T15:52:39.796Z,36.70
2018-05-06T15:55:07.821Z,36.59
2018-05-06T15:57:35.922Z,35.11
2018-05-06T16:00:04.059Z,35.82
2018-05-06T16:05:38.136Z,37.10
2018-05-06T16:08:06.213Z,36.97
2018-05-06T16:10:34.273Z,36.71
2018-05-06T16:13:02.380Z,37.47
2018-05-06T16:15:30.493Z,41.94
2018-05-06T16:17:58.619Z,44.55
2018-05-06T16:20:26.690Z,46.01
2018-05-06T16:22:54.660Z,49.84
2018-05-06T16:25:22.724Z,52.93
2018-05-06T16:27:50.739Z,54.52
2018-05-06T16:30:18.788Z,55.04
2018-05-06T16:32:46.897Z,57.50
2018-05-06T16:35:14.926Z,57.90
2018-05-06T16:37:42.971Z,58.35
2018-05-06T16:40:11.138Z,58.55
2018-05-06T16:42:39.277Z,56.24
2018-05-06T16:45:07.418Z,58.87
2018-05-06T16:47:35.488Z,62.30
2018-05-06T16:50:04.046Z,63.22
2018-05-06T16:52:32.226Z,61.81
2018-05-06T16:55:01.308Z,62.02
2018-05-06T16:57:29.464Z,61.13
2018-05-06T16:59:59.046Z,60.90
2018-05-06T17:02:27.322Z,60.37
2018-05-06T17:04:55.541Z,58.66
2018-05-06T17:07:25.071Z,58.74
2018-05-06T17:09:53.095Z,59.25
2018-05-06T17:12:21.173Z,57.12
2018-05-06T17:14:49.213Z,57.17
2018-05-06T17:17:17.229Z,57.59
2018-05-06T17:19:45.361Z,58.78
2018-05-06T17:22:13.449Z,60.41
2018-05-06T17:24:41.493Z,57.98
2018-05-06T17:27:09.582Z,58.87
2018-05-06T17:29:37.651Z,57.06
2018-05-06T17:32:05.804Z,57.30
2018-05-06T17:34:33.936Z,57.44
2018-05-06T17:37:02.437Z,56.70
2018-05-06T17:39:30.502Z,57.49
2018-05-06T17:41:58.604Z,57.19
2018-05-06T17:44:26.664Z,57.62
2018-05-06T17:46:54.759Z,57.18
2018-05-06T17:49:22.801Z,56.00
2018-05-06T17:51:51.097Z,55.54
2018-05-06T17:54:19.155Z,57.38
2018-05-06T17:56:47.191Z,55.18
2018-05-06T17:59:15.249Z,54.85
2018-05-06T18:01:43.385Z,55.20
2018-05-06T18:04:11.352Z,53.80
2018-05-06T18:06:39.398Z,52.74
2018-05-06T18:09:07.395Z,54.87
2018-05-06T18:11:35.415Z,53.54
2018-05-06T18:14:03.438Z,53.67
2018-05-06T18:16:31.521Z,53.60
2018-05-06T18:18:59.578Z,52.65
2018-05-06T18:21:27.683Z,52.81
2018-05-06T18:23:55.747Z,53.06
2018-05-06T18:26:23.786Z,52.46
2018-05-06T18:28:51.793Z,53.39
2018-05-06T18:31:19.870Z,53.32
2018-05-06T18:33:47.861Z,52.57
2018-05-06T18:36:15.865Z,51.81
2018-05-06T18:38:43.952Z,52.29
2018-05-06T18:41:11.974Z,52.68
2018-05-06T18:43:40.001Z,54.98
2018-05-06T18:46:08.085Z,53.18
2018-05-06T18:48:36.182Z,53.36
2018-05-06T18:51:04.252Z,54.62
2018-05-06T18:53:32.313Z,56.48
2018-05-06T18:56:00.347Z,57.16
2018-05-06T18:58:28.426Z,56.34
2018-05-06T19:00:56.608Z,58.26
2018-05-06T19:03:24.641Z,56.67
2018-05-06T19:05:53.805Z,58.31
2018-05-06T19:08:24.841Z,58.44
2018-05-06T19:10:53.861Z,60.58
2018-05-06T19:13:29.181Z,59.86
2018-05-06T19:15:57.867Z,58.71
2018-05-06T19:18:25.852Z,60.00
2018-05-06T19:20:53.924Z,57.72
2018-05-06T19:23:22.244Z,58.61
2018-05-06T19:25:51.507Z,60.63
2018-05-06T19:28:28.174Z,59.66
2018-05-06T19:30:56.272Z,58.22
2018-05-06T19:33:24.481Z,58.32
2018-05-06T19:35:54.161Z,58.27
2018-05-06T19:38:22.235Z,57.84
2018-05-06T19:40:50.332Z,56.52
2018-05-06T19:43:18.267Z,56.54
2018-05-06T19:45:46.355Z,55.83
2018-05-06T19:48:14.427Z,54.89
2018-05-06T19:50:42.486Z,55.55
2018-05-06T19:53:10.581Z,54.79
2018-05-06T19:55:39.033Z,53.55
2018-05-06T19:58:07.091Z,55.81
2018-05-06T20:00:35.115Z,55.98
2018-05-06T20:03:03.198Z,56.15
2018-05-06T20:05:31.211Z,56.65
2018-05-06T20:07:59.390Z,56.36
2018-05-06T20:10:27.500Z,56.24
2018-05-06T20:12:55.549Z,55.34
2018-05-06T20:15:23.530Z,53.86
2018-05-06T20:17:51.595Z,55.57
2018-05-06T20:20:19.621Z,53.35
2018-05-06T20:22:47.665Z,54.02
2018-05-06T20:25:15.721Z,53.77
2018-05-06T20:27:43.711Z,54.33
2018-05-06T20:30:11.811Z,55.35
2018-05-06T20:32:39.865Z,55.90
2018-05-06T20:35:07.967Z,56.16
2018-05-06T20:37:36.059Z,56.38
2018-05-06T20:40:04.145Z,55.72
2018-05-06T20:42:32.202Z,55.17
2018-05-06T20:45:00.288Z,55.69
2018-05-06T20:47:28.304Z,54.73
2018-05-06T20:49:56.322Z,55.45
2018-05-06T20:52:25.514Z,55.80
2018-05-06T20:54:53.530Z,55.33
2018-05-06T20:57:21.968Z,55.51
2018-05-06T20:59:50.058Z,54.88
2018-05-06T21:02:18.157Z,56.72
2018-05-06T21:04:46.255Z,55.61
2018-05-06T21:07:14.416Z,55.97
2018-05-06T21:09:42.419Z,56.48
2018-05-06T21:12:10.445Z,55.09
2018-05-06T21:14:38.501Z,58.66
2018-05-06T21:17:06.581Z,57.23
2018-05-06T21:19:34.607Z,58.95
2018-05-06T21:22:02.783Z,59.58
2018-05-06T21:24:30.816Z,56.11
2018-05-06T21:26:58.890Z,54.94
2018-05-06T21:29:26.987Z,54.04
2018-05-06T21:31:55.100Z,55.60
2018-05-06T21:34:23.198Z,56.46
2018-05-06T21:36:51.379Z,58.60
2018-05-06T21:39:19.391Z,55.45
2018-05-06T21:41:47.430Z,57.00
2018-05-06T21:44:15.431Z,56.83
2018-05-06T21:46:43.454Z,56.86
2018-05-06T21:49:11.476Z,56.38
2018-05-06T21:51:39.539Z,55.11
2018-05-06T21:54:07.535Z,56.12
2018-05-06T21:56:35.557Z,52.97
2018-05-06T21:59:03.945Z,53.88
2018-05-06T22:01:32.036Z,53.60
2018-05-06T22:04:00.031Z,52.53
2018-05-06T22:06:28.204Z,52.82
2018-05-06T22:08:56.247Z,56.08
2018-05-06T22:11:24.354Z,52.78
2018-05-06T22:13:52.451Z,55.08
2018-05-06T22:16:20.533Z,50.82
2018-05-06T22:18:48.586Z,50.59
2018-05-06T22:21:16.591Z,49.56
2018-05-06T22:23:44.604Z,52.50
2018-05-06T22:26:12.643Z,49.21
2018-05-06T22:28:40.664Z,51.09
2018-05-06T22:31:08.741Z,50.44
2018-05-06T22:33:36.775Z,51.93
2018-05-06T22:36:04.902Z,52.07
2018-05-06T22:38:32.941Z,53.31
2018-05-06T22:41:01.009Z,53.25
2018-05-06T22:43:29.067Z,53.92
2018-05-06T22:45:57.186Z,53.31
2018-05-06T22:48:25.229Z,52.99
2018-05-06T22:50:53.303Z,53.65
2018-05-06T22:53:21.360Z,52.78
2018-05-06T22:55:49.611Z,52.97
2018-05-06T22:58:17.701Z,52.46
2018-05-06T23:00:48.091Z,52.98
2018-05-06T23:03:17.231Z,53.04
2018-05-06T23:05:45.317Z,52.41
2018-05-06T23:08:13.315Z,52.99
2018-05-06T23:10:41.352Z,53.08
2018-05-06T23:13:09.431Z,55.86
2018-05-06T23:15:37.433Z,51.43
2018-05-06T23:18:05.509Z,53.53
2018-05-06T23:20:33.623Z,51.93
2018-05-06T23:23:01.683Z,52.31
2018-05-06T23:25:29.658Z,53.21
2018-05-06T23:27:57.799Z,54.10
2018-05-06T23:30:25.835Z,51.25
2018-05-06T23:32:53.911Z,52.38
2018-05-06T23:35:21.945Z,54.14
2018-05-06T23:37:50.072Z,52.52
2018-05-06T23:40:18.109Z,53.31
2018-05-06T23:42:46.133Z,52.53
2018-05-06T23:45:14.182Z,52.80
2018-05-06T23:47:42.353Z,55.16
2018-05-06T23:50:10.462Z,55.63
2018-05-06T23:52:38.546Z,55.31
2018-05-06T23:55:06.571Z,54.88
2018-05-06T23:57:34.626Z,55.47
